Time;durP1;ratioP1;P1;durP2;ratioP2;P2;SDS_P1;SDS_P2;PMS_P1;PMS_P2;Temp;Humidity;BMP_temperature;BMP_pressure;BME280_temperature;BME280_humidity;BME280_pressure;Samples;Min_cycle;Max_cycle;Signal;HPM_P1;HPM_P2
2022/05/07 00:02:25;;;;;;;;;25.40;24.80;;;;;18.43;59.53;99730.78;5048787;28;9577;-76
2022/05/07 00:04:53;;;;;;;;;31.00;28.75;;;;;18.43;59.12;99722.84;5048904;28;8984;-76
2022/05/07 00:07:22;;;;;;;;;37.00;33.50;;;;;18.46;59.75;99721.88;5066302;28;8850;-76
2022/05/07 00:09:51;;;;;;;;;32.25;30.75;;;;;18.30;59.90;99719.69;5069011;28;8994;-76
2022/05/07 00:12:20;;;;;;;;;31.75;30.75;;;;;18.46;59.13;99722.75;5068814;28;8829;-75
2022/05/07 00:14:48;;;;;;;;;31.50;30.25;;;;;18.44;59.58;99727.19;5069170;28;9598;-77
2022/05/07 00:20:05;;;;;;;;;30.00;26.75;;;;;18.68;58.24;99720.31;5008162;28;9591;-78
2022/05/07 00:22:34;;;;;;;;;32.00;29.00;;;;;18.83;58.11;99720.78;5008827;28;8853;-76
2022/05/07 00:25:03;;;;;;;;;29.50;29.25;;;;;18.93;57.83;99716.94;5008899;28;8994;-76
2022/05/07 00:27:31;;;;;;;;;31.75;28.25;;;;;18.98;57.68;99717.66;5008923;28;8865;-76
2022/05/07 00:29:59;;;;;;;;;32.75;30.25;;;;;18.79;59.10;99711.19;5008990;28;8845;-76
2022/05/07 00:32:29;;;;;;;;;32.75;31.00;;;;;18.58;60.05;99718.88;4992338;28;8853;-76
2022/05/07 00:34:58;;;;;;;;;28.25;28.25;;;;;18.53;60.59;99712.88;4992391;28;9861;-76
2022/05/07 00:37:28;;;;;;;;;28.50;26.50;;;;;18.50;60.73;99711.16;5008627;28;8886;-76
2022/05/07 00:39:56;;;;;;;;;31.00;28.75;;;;;18.51;60.28;99712.06;5008845;28;8891;-76
2022/05/07 00:42:26;;;;;;;;;28.25;28.25;;;;;18.51;60.47;99709.41;4992755;28;8927;-76
2022/05/07 00:44:54;;;;;;;;;31.00;26.80;;;;;18.62;60.14;99712.59;5008415;28;8999;-75
2022/05/07 00:47:25;;;;;;;;;31.75;29.50;;;;;18.70;59.65;99709.72;4992191;28;10125;-75
2022/05/07 00:51:33;;;;;;;;;33.50;30.75;;;;;18.78;59.55;99705.03;4992262;28;8856;-76
2022/05/07 00:52:47;;;;;;;;;30.50;30.25;;;;;18.79;59.74;99709.41;4992077;28;8861;-76
2022/05/07 00:55:17;;;;;;;;;31.80;27.60;;;;;18.83;59.59;99705.78;4992154;28;8865;-76
2022/05/07 00:57:45;;;;;;;;;29.00;29.00;;;;;18.87;59.25;99710.06;5036054;28;8862;-76
2022/05/07 01:00:14;;;;;;;;;31.00;29.25;;;;;18.90;59.08;99706.44;5011750;28;8923;-76
2022/05/07 01:02:43;;;;;;;;;33.00;30.75;;;;;18.86;59.49;99707.47;5011428;28;8846;-75
2022/05/07 01:05:13;;;;;;;;;27.00;27.00;;;;;18.84;59.82;99701.38;5027889;28;9540;-76
2022/05/07 01:07:45;;;;;;;;;29.25;27.00;;;;;18.84;59.49;99704.00;5011610;28;8928;-75
2022/05/07 01:10:17;;;;;;;;;29.00;28.25;;;;;18.89;59.25;99707.38;5011426;28;8833;-76
2022/05/07 01:12:48;;;;;;;;;34.25;32.00;;;;;18.80;59.86;99705.88;5011510;28;8850;-76
2022/05/07 01:15:17;;;;;;;;;31.50;31.00;;;;;18.74;60.10;99699.91;5011149;28;8846;-75
2022/05/07 01:17:47;;;;;;;;;31.75;30.25;;;;;18.77;59.59;99699.78;4995294;28;8846;-76
2022/05/07 01:20:17;;;;;;;;;31.75;30.25;;;;;18.80;59.61;99703.25;5011055;28;8822;-76
2022/05/07 01:22:49;;;;;;;;;33.25;31.25;;;;;18.84;59.36;99704.88;5027770;28;8830;-75
2022/05/07 01:25:25;;;;;;;;;34.75;31.00;;;;;18.82;59.55;99704.06;5010977;28;8881;-77
2022/05/07 01:27:54;;;;;;;;;28.75;28.75;;;;;18.86;59.59;99702.19;5011461;28;8834;-75
2022/05/07 01:30:24;;;;;;;;;30.50;30.25;;;;;18.84;59.58;99706.66;5014100;28;8947;-76
2022/05/07 01:32:53;;;;;;;;;31.25;29.50;;;;;18.85;59.49;99701.31;5067131;28;8845;-75
2022/05/07 01:35:23;;;;;;;;;34.50;32.25;;;;;18.79;59.60;99697.97;5044956;28;8835;-75
2022/05/07 01:37:55;;;;;;;;;27.75;27.00;;;;;18.73;60.21;99701.66;5048981;28;8862;-76
2022/05/07 01:40:27;;;;;;;;;32.75;30.75;;;;;18.71;60.21;99698.22;5048903;28;8858;-77
2022/05/07 01:42:55;;;;;;;;;29.50;29.00;;;;;18.73;60.10;99698.16;5048499;28;8870;-76
2022/05/07 01:45:25;;;;;;;;;31.00;30.75;;;;;18.74;60.08;99686.69;5048156;28;9568;-77
2022/05/07 01:48:09;;;;;;;;;33.75;32.25;;;;;18.73;59.99;99700.81;5048254;28;8831;-75
2022/05/07 01:50:43;;;;;;;;;31.00;29.75;;;;;18.72;59.82;99699.09;5048368;28;9047;-75
2022/05/07 01:53:17;;;;;;;;;30.50;29.25;;;;;18.64;60.37;99702.84;5048100;28;8861;-76
2022/05/07 01:55:50;;;;;;;;;33.25;30.50;;;;;18.60;60.76;99695.94;5031411;28;9612;-76
2022/05/07 01:58:22;;;;;;;;;35.25;33.25;;;;;18.60;60.80;99697.69;5049471;28;8847;-75
2022/05/07 02:00:54;;;;;;;;;34.00;31.50;;;;;18.58;61.09;99704.78;5047909;28;8943;-75
2022/05/07 02:03:23;;;;;;;;;32.75;31.25;;;;;18.50;60.82;99697.97;5047893;28;8870;-74
2022/05/07 02:05:52;;;;;;;;;37.00;34.00;;;;;18.46;60.71;99693.69;5049178;28;8866;-75
2022/05/07 02:08:23;;;;;;;;;29.00;28.00;;;;;18.35;61.37;99692.28;5031004;28;8846;-75
2022/05/07 02:10:52;;;;;;;;;34.50;30.50;;;;;18.35;61.60;99689.66;5048238;28;9592;-75
2022/05/07 02:13:21;;;;;;;;;34.00;32.50;;;;;18.34;61.86;99703.78;5048121;28;8858;-75
2022/05/07 02:15:49;;;;;;;;;31.25;30.50;;;;;18.35;61.29;99694.94;5049606;28;8871;-76
2022/05/07 02:18:18;;;;;;;;;35.00;33.25;;;;;18.35;61.63;99695.78;5048242;28;8862;-77
2022/05/07 02:20:47;;;;;;;;;35.25;33.00;;;;;18.30;61.76;99700.38;5047798;28;8855;-78
2022/05/07 02:23:17;;;;;;;;;30.25;29.50;;;;;18.26;61.94;99696.94;5048107;28;8936;-76
2022/05/07 02:25:47;;;;;;;;;33.25;32.25;;;;;18.27;61.67;99700.44;5030608;28;9545;-75
2022/05/07 02:28:17;;;;;;;;;39.50;34.25;;;;;18.20;62.30;99702.38;5047829;28;8874;-75
2022/05/07 02:30:46;;;;;;;;;26.00;25.00;;;;;18.19;62.00;99699.81;4982003;28;9633;-76
2022/05/07 02:33:17;;;;;;;;;35.00;33.25;;;;;18.18;62.46;99703.34;5046180;28;9561;-75
2022/05/07 02:35:46;;;;;;;;;34.75;31.75;;;;;18.17;62.34;99704.28;5029670;28;8835;-76
2022/05/07 02:38:14;;;;;;;;;35.75;31.75;;;;;18.16;62.87;99702.53;5029648;28;8938;-75
2022/05/07 02:43:39;;;;;;;;;37.00;32.75;;;;;18.05;63.06;99711.63;5049471;28;8861;-76
2022/05/07 02:46:14;;;;;;;;;35.25;32.75;;;;;18.07;63.01;99707.19;5049445;28;8873;-77
2022/05/07 02:48:45;;;;;;;;;34.75;32.25;;;;;18.04;63.60;99711.69;5049568;28;8876;-76
2022/05/07 02:51:16;;;;;;;;;34.50;33.00;;;;;18.07;63.18;99703.66;5049433;28;8845;-76
2022/05/07 02:53:45;;;;;;;;;35.00;32.50;;;;;18.06;62.92;99707.22;5032720;28;9587;-75
2022/05/07 02:56:13;;;;;;;;;32.75;32.00;;;;;18.06;62.66;99702.78;5049336;28;8983;-76
2022/05/07 02:58:44;;;;;;;;;41.25;35.50;;;;;18.07;63.06;99701.00;5032894;28;8846;-76
2022/05/07 03:01:13;;;;;;;;;35.75;33.75;;;;;18.09;62.82;99702.72;5016626;28;9044;-76
2022/05/07 03:03:42;;;;;;;;;32.50;31.75;;;;;18.12;62.48;99696.47;5050369;28;8891;-77
2022/05/07 03:06:10;;;;;;;;;43.50;36.25;;;;;18.10;62.75;99699.16;5067577;28;8931;-77
2022/05/07 03:08:39;;;;;;;;;37.50;34.75;;;;;18.09;62.62;99700.06;5068878;28;8880;-75
2022/05/07 03:11:08;;;;;;;;;36.75;33.75;;;;;18.07;62.43;99696.63;5050400;28;8832;-76
2022/05/07 03:13:37;;;;;;;;;35.50;34.00;;;;;18.03;62.55;99702.88;5067273;28;8860;-77
2022/05/07 03:16:09;;;;;;;;;33.50;32.25;;;;;18.05;62.13;99702.84;5063417;28;8959;-75
2022/05/07 03:18:38;;;;;;;;;35.75;34.00;;;;;18.05;62.21;99700.19;5063613;28;8859;-76
2022/05/07 03:21:07;;;;;;;;;42.50;35.50;;;;;18.03;62.33;99702.88;5063506;28;8847;-75
2022/05/07 03:23:35;;;;;;;;;189.00;179.00;;;;;18.00;62.96;99700.34;5047111;28;8916;-78
2022/05/07 03:26:07;;;;;;;;;28.25;25.75;;;;;17.94;63.36;99703.16;5046914;28;8950;-75
2022/05/07 03:28:36;;;;;;;;;37.75;34.00;;;;;17.92;63.44;99702.34;5063723;28;8851;-76
2022/05/07 03:31:05;;;;;;;;;34.00;33.00;;;;;17.95;63.45;99693.47;5063534;28;8932;-76
2022/05/07 03:33:35;;;;;;;;;34.00;32.00;;;;;17.97;62.91;99696.91;5063623;28;8861;-75
2022/05/07 03:36:04;;;;;;;;;37.25;33.50;;;;;18.01;63.03;99698.56;5063492;28;8955;-77
2022/05/07 03:38:33;;;;;;;;;40.50;35.50;;;;;18.04;62.64;99696.69;5046831;28;8854;-75
2022/05/07 03:41:10;;;;;;;;;38.25;34.00;;;;;18.07;62.55;99699.25;5063651;28;8815;-75
2022/05/07 03:43:40;;;;;;;;;35.25;32.25;;;;;18.08;62.67;99694.84;5063345;28;8843;-75
2022/05/07 03:46:09;;;;;;;;;36.50;32.75;;;;;18.09;62.65;99697.44;5013253;28;8878;-76
2022/05/07 03:48:48;;;;;;;;;43.00;38.25;;;;;18.09;62.58;99696.56;5063865;28;8907;-76
2022/05/07 03:51:16;;;;;;;;;38.75;34.50;;;;;18.09;62.58;99700.06;5063606;28;8874;-75
2022/05/07 03:53:45;;;;;;;;;44.25;38.00;;;;;18.04;63.75;99693.19;5047326;28;8854;-76
2022/05/07 03:56:18;;;;;;;;;37.50;34.50;;;;;18.06;63.48;99696.66;5049971;28;9094;-76
2022/05/07 03:58:46;;;;;;;;;41.75;36.00;;;;;18.08;63.91;99686.91;5034046;28;8869;-75
2022/05/07 04:01:26;;;;;;;;;82.75;75.50;;;;;18.14;63.35;99693.78;5036489;28;8854;-75
2022/05/07 04:03:56;;;;;;;;;49.00;40.25;;;;;18.14;63.74;99696.44;5050565;28;10238;-76
2022/05/07 04:06:25;;;;;;;;;38.25;33.75;;;;;18.19;63.33;99703.31;5016973;28;8851;-76
2022/05/07 04:08:53;;;;;;;;;38.75;35.00;;;;;18.23;63.58;99704.09;5051326;28;8843;-75
2022/05/07 04:11:22;;;;;;;;;37.50;35.00;;;;;18.27;63.95;99706.56;5049893;28;8862;-76
2022/05/07 04:13:55;;;;;;;;;42.00;35.25;;;;;18.35;63.38;99706.34;5034142;28;8881;-75
2022/05/07 04:16:25;;;;;;;;;38.50;35.00;;;;;18.41;63.28;99714.09;5066623;28;8884;-75
2022/05/07 04:19:11;;;;;;;;;51.25;43.75;;;;;18.49;63.01;99712.09;5021048;28;8873;-76
2022/05/07 04:21:42;;;;;;;;;47.75;41.00;;;;;18.55;62.72;99712.81;5017192;28;8862;-75
2022/05/07 04:24:21;;;;;;;;;68.25;54.75;;;;;18.55;62.71;99713.69;5050100;28;8834;-75
2022/05/07 04:26:52;;;;;;;;;49.25;41.75;;;;;18.60;62.64;99716.16;5049826;28;8977;-75
2022/05/07 04:29:21;;;;;;;;;54.00;43.00;;;;;18.64;61.94;99716.03;5049710;28;8835;-75
2022/05/07 04:32:01;;;;;;;;;47.00;38.75;;;;;18.71;62.08;99716.69;5050365;28;8847;-76
2022/05/07 04:34:31;;;;;;;;;52.25;44.50;;;;;18.77;62.23;99719.19;5034362;28;8957;-75
2022/05/07 04:37:02;;;;;;;;;53.00;44.25;;;;;18.83;61.81;99721.66;5033544;28;8866;-75
2022/05/07 04:39:34;;;;;;;;;38.75;33.75;;;;;18.92;61.78;99728.41;5050306;28;8855;-76
2022/05/07 04:42:06;;;;;;;;;39.75;34.75;;;;;19.00;61.80;99729.03;5050182;28;8843;-75
2022/05/07 04:44:49;;;;;;;;;43.25;35.25;;;;;19.09;61.49;99728.75;5049970;28;8854;-75
2022/05/07 04:47:29;;;;;;;;;38.25;33.75;;;;;19.17;60.90;99730.25;5033392;28;8886;-76
2022/05/07 04:50:00;;;;;;;;;43.75;37.00;;;;;19.22;61.03;99728.31;5049598;28;8886;-75
2022/05/07 04:52:38;;;;;;;;;45.75;39.75;;;;;19.27;60.76;99731.69;5049330;28;8858;-75
2022/05/07 04:55:08;;;;;;;;;38.25;35.00;;;;;19.34;60.38;99733.22;5049275;28;8858;-77
2022/05/07 04:57:37;;;;;;;;;39.25;34.00;;;;;19.43;60.45;99738.19;5033541;28;8866;-77
2022/05/07 05:00:09;;;;;;;;;39.25;34.50;;;;;19.53;60.23;99732.56;5033357;28;8877;-75
2022/05/07 05:02:51;;;;;;;;;42.75;34.75;;;;;19.57;59.86;99735.06;5003924;28;8876;-75
2022/05/07 05:05:26;;;;;;;;;37.25;34.25;;;;;19.63;59.66;99741.94;5049383;28;8889;-76
2022/05/07 05:08:06;;;;;;;;;41.50;35.75;;;;;19.73;59.08;99737.22;5067821;28;8871;-75
2022/05/07 05:10:34;;;;;;;;;36.75;33.75;;;;;19.81;58.88;99738.69;5068877;28;8937;-76
2022/05/07 05:13:03;;;;;;;;;39.50;35.50;;;;;19.95;58.05;99745.28;5019202;28;8851;-76
2022/05/07 05:15:32;;;;;;;;;36.75;33.25;;;;;20.01;57.05;99740.59;5052061;28;8882;-75
2022/05/07 05:18:06;;;;;;;;;36.00;31.50;;;;;20.08;55.96;99740.41;5068997;28;8855;-75
2022/05/07 05:20:40;;;;;;;;;30.50;29.25;;;;;20.14;55.38;99738.38;5033124;28;8883;-76
2022/05/07 05:23:23;;;;;;;;;24.60;23.80;;;;;20.16;51.96;99736.53;5049297;28;8853;-76
2022/05/07 05:25:52;;;;;;;;;25.60;22.80;;;;;20.14;51.02;99738.38;5048896;28;8854;-75
2022/05/07 05:28:40;;;;;;;;;20.00;17.80;;;;;20.09;49.26;99735.03;5004150;28;8839;-76
2022/05/07 05:31:11;;;;;;;;;20.00;20.00;;;;;20.11;49.12;99738.47;5032138;28;8846;-75
2022/05/07 05:33:45;;;;;;;;;22.20;20.20;;;;;20.13;48.42;99736.66;5030703;28;8876;-76
2022/05/07 05:36:24;;;;;;;;;21.40;21.40;;;;;20.27;48.37;99741.44;5030821;28;8842;-76
2022/05/07 05:38:53;;;;;;;;;21.40;20.60;;;;;20.25;48.34;99736.19;5046740;28;8842;-76
2022/05/07 05:41:27;;;;;;;;;23.40;22.00;;;;;20.41;48.14;99733.81;5030499;28;9497;-76
2022/05/07 05:43:55;;;;;;;;;23.20;21.60;;;;;20.53;47.37;99747.53;5030501;28;8831;-76
2022/05/07 05:46:25;;;;;;;;;17.60;17.40;;;;;20.67;46.36;99736.44;5047083;28;8874;-76
2022/05/07 05:48:53;;;;;;;;;17.80;15.80;;;;;20.75;44.78;99742.28;5030855;28;8896;-77
2022/05/07 05:51:24;;;;;;;;;16.80;15.80;;;;;20.84;43.65;99737.50;4998590;28;8842;-75
2022/05/07 05:53:52;;;;;;;;;18.40;17.60;;;;;20.93;44.05;99738.91;5014495;28;8854;-76
2022/05/07 05:56:21;;;;;;;;;11.80;11.80;;;;;21.01;43.15;99730.66;5047355;28;9009;-76
2022/05/07 05:58:55;;;;;;;;;20.20;18.00;;;;;21.08;43.15;99731.25;5014642;28;8882;-75
2022/05/07 06:01:30;;;;;;;;;16.20;15.40;;;;;21.15;43.03;99735.38;5030709;28;8862;-76
2022/05/07 06:04:17;;;;;;;;;16.20;14.00;;;;;21.24;42.86;99732.34;5047583;28;8904;-77
2022/05/07 06:06:48;;;;;;;;;17.80;17.00;;;;;21.40;42.57;99736.09;5048486;28;8990;-75
2022/05/07 06:09:19;;;;;;;;;17.60;15.80;;;;;21.54;42.28;99730.22;5048139;28;8858;-74
2022/05/07 06:11:48;;;;;;;;;16.00;14.00;;;;;21.50;41.66;99723.34;5054108;28;8956;-75
2022/05/07 06:14:17;;;;;;;;;16.00;15.60;;;;;21.57;41.48;99729.25;5017884;28;8844;-76
2022/05/07 06:16:46;;;;;;;;;13.00;13.00;;;;;21.55;41.23;99726.66;5067995;28;8844;-75
2022/05/07 06:19:16;;;;;;;;;9.80;9.80;;;;;21.55;40.80;99729.31;5067227;28;8867;-77
2022/05/07 06:21:54;;;;;;;;;11.20;11.20;;;;;21.48;40.69;99727.84;5067441;28;8848;-75
2022/05/07 06:27:31;;;;;;;;;14.80;14.80;;;;;21.48;41.23;99740.25;5045695;28;9068;-75
2022/05/07 06:30:16;;;;;;;;;14.80;13.80;;;;;21.53;41.93;99743.56;5046426;28;8953;-78
2022/05/07 06:32:51;;;;;;;;;18.40;17.80;;;;;21.60;41.93;99739.72;4983603;28;8848;-76
2022/05/07 06:35:24;;;;;;;;;18.40;16.80;;;;;21.75;42.45;99740.84;5046471;28;8848;-78
2022/05/07 06:38:03;;;;;;;;;16.00;15.00;;;;;21.82;41.94;99738.81;5046336;28;9770;-79
2022/05/07 06:40:33;;;;;;;;;13.40;13.00;;;;;21.91;42.02;99743.69;5006699;28;8860;-77
2022/05/07 06:43:01;;;;;;;;;16.80;16.00;;;;;21.94;41.22;99744.41;4958729;28;8861;-77
2022/05/07 06:46:00;;;;;;;;;15.20;13.40;;;;;22.01;41.05;99745.03;4932339;28;9022;-75
2022/05/07 06:48:30;;;;;;;;;17.00;16.80;;;;;21.97;40.41;99743.44;4947953;28;8873;-75
2022/05/07 06:51:06;;;;;;;;;15.80;15.80;;;;;21.97;41.16;99736.34;4931796;28;8942;-76
2022/05/07 06:53:36;;;;;;;;;13.00;12.80;;;;;22.06;41.13;99740.38;4931839;28;8865;-76
2022/05/07 06:56:06;;;;;;;;;14.60;13.60;;;;;22.07;40.17;99742.09;4947789;28;8895;-76
2022/05/07 06:58:36;;;;;;;;;18.00;15.60;;;;;22.10;40.19;99747.28;4968910;28;8840;-77
2022/05/07 07:01:04;;;;;;;;;12.00;11.40;;;;;22.16;39.93;99738.16;4986593;28;8875;-77
2022/05/07 07:03:33;;;;;;;;;14.60;14.00;;;;;22.24;39.47;99736.00;4986816;28;8883;-76
2022/05/07 07:06:03;;;;;;;;;12.80;11.00;;;;;22.38;39.18;99738.06;4961403;28;8874;-76
2022/05/07 07:08:31;;;;;;;;;13.40;12.60;;;;;22.45;38.65;99731.53;4920306;28;8890;-77
2022/05/07 07:11:01;;;;;;;;;9.40;9.40;;;;;22.31;37.73;99728.66;4975455;28;8824;-76
2022/05/07 07:13:30;;;;;;;;;12.80;12.80;;;;;22.49;37.42;99730.44;5006661;28;8946;-76
2022/05/07 07:15:59;;;;;;;;;10.60;10.00;;;;;22.52;36.49;99729.47;4991028;28;8969;-74
2022/05/07 07:18:28;;;;;;;;;13.60;11.60;;;;;22.55;35.63;99737.28;5005673;28;8944;-76
2022/05/07 07:20:57;;;;;;;;;10.80;10.00;;;;;22.64;36.35;99736.00;5002666;28;8850;-76
2022/05/07 07:23:25;;;;;;;;;9.60;9.00;;;;;22.72;35.52;99737.38;5054989;28;9592;-77
2022/05/07 07:25:54;;;;;;;;;9.20;7.20;;;;;22.87;35.42;99746.41;5047855;28;8962;-76
2022/05/07 07:28:25;;;;;;;;;9.00;9.00;;;;;22.86;35.77;99741.16;5029936;28;8905;-76
2022/05/07 07:30:54;;;;;;;;;12.00;10.80;;;;;22.80;35.06;99742.31;5000200;28;8888;-78
2022/05/07 07:33:22;;;;;;;;;9.20;9.20;;;;;22.86;34.49;99742.00;5051764;28;8874;-77
2022/05/07 07:35:51;;;;;;;;;9.20;9.00;;;;;22.73;33.82;99741.72;5050836;28;8842;-78
2022/05/07 07:38:26;;;;;;;;;8.80;8.80;;;;;22.68;33.90;99745.53;5052015;28;8974;-76
2022/05/07 07:40:56;;;;;;;;;11.80;11.40;;;;;22.81;34.15;99741.38;5051874;28;8889;-75
2022/05/07 07:43:26;;;;;;;;;9.80;9.00;;;;;22.97;34.12;99742.34;5033946;28;8855;-76
2022/05/07 07:48:41;;;;;;;;;10.40;9.60;;;;;23.14;32.18;99738.91;5050311;28;8850;-77
2022/05/07 07:51:10;;;;;;;;;8.20;8.20;;;;;23.14;32.41;99741.56;5051677;28;8834;-76
2022/05/07 07:53:40;;;;;;;;;9.40;9.40;;;;;23.11;32.92;99735.53;5049942;28;8854;-76
2022/05/07 07:56:09;;;;;;;;;8.20;5.00;;;;;23.32;32.59;99736.25;5049942;28;8862;-77
2022/05/07 07:58:39;;;;;;;;;10.00;8.00;;;;;23.45;32.74;99744.50;5052139;28;9012;-76
2022/05/07 08:01:08;;;;;;;;;10.00;9.20;;;;;23.53;32.20;99737.84;5049886;28;8965;-76
2022/05/07 08:03:37;;;;;;;;;7.20;7.20;;;;;23.44;31.97;99740.09;5051185;28;8835;-76
2022/05/07 08:06:06;;;;;;;;;10.60;9.60;;;;;23.48;30.64;99733.69;5051061;28;8884;-77
2022/05/07 08:14:10;;;;;;;;;6.80;6.80;;;;;23.52;29.08;99730.78;5048006;28;9120;-77
2022/05/07 08:16:39;;;;;;;;;8.80;8.20;;;;;23.51;29.27;99729.06;5048489;28;8909;-77
2022/05/07 08:19:08;;;;;;;;;8.60;6.60;;;;;23.50;29.26;99726.50;5000282;28;8858;-76
2022/05/07 08:21:37;;;;;;;;;9.00;8.20;;;;;23.53;29.45;99734.31;5068480;28;8865;-76
2022/05/07 08:24:07;;;;;;;;;7.20;7.20;;;;;23.59;29.57;99725.13;5035110;28;8862;-77
2022/05/07 08:26:36;;;;;;;;;8.20;7.60;;;;;23.69;29.30;99732.59;5068496;28;8995;-77
2022/05/07 08:29:05;;;;;;;;;8.20;8.00;;;;;23.77;29.55;99734.00;5068135;28;8863;-77
2022/05/07 08:31:35;;;;;;;;;8.20;8.20;;;;;23.97;29.70;99730.28;5051616;28;8872;-76
2022/05/07 08:34:04;;;;;;;;;8.00;7.60;;;;;24.04;29.49;99729.03;5051321;28;8840;-76
2022/05/07 08:36:33;;;;;;;;;8.60;8.20;;;;;23.85;29.87;99737.13;5068218;28;8868;-77
2022/05/07 08:39:02;;;;;;;;;7.40;7.00;;;;;23.86;29.70;99731.75;5051538;28;8868;-76
2022/05/07 08:41:31;;;;;;;;;11.40;10.00;;;;;23.81;30.07;99735.59;5068178;28;8938;-77
2022/05/07 08:44:00;;;;;;;;;4.80;4.00;;;;;23.87;29.95;99735.25;5051332;28;8840;-77
2022/05/07 08:46:29;;;;;;;;;9.00;9.00;;;;;23.90;30.24;99738.63;5068736;28;8886;-75
2022/05/07 08:48:59;;;;;;;;;7.60;7.20;;;;;23.83;30.30;99736.38;5069095;28;9582;-77
2022/05/07 08:51:30;;;;;;;;;7.40;7.40;;;;;23.77;30.16;99736.66;5070761;28;8840;-77
2022/05/07 08:53:59;;;;;;;;;9.60;9.60;;;;;23.80;30.13;99741.84;5052196;28;8921;-77
2022/05/07 08:56:28;;;;;;;;;8.40;8.40;;;;;23.75;29.73;99737.59;5034850;28;8884;-76
2022/05/07 08:58:57;;;;;;;;;13.20;12.00;;;;;23.77;30.06;99736.66;5051180;28;8836;-77
2022/05/07 09:01:25;;;;;;;;;9.00;9.00;;;;;23.89;29.82;99738.69;5068877;28;8852;-76
2022/05/07 09:03:54;;;;;;;;;10.20;9.20;;;;;23.81;29.96;99744.44;5070235;28;8950;-74
2022/05/07 09:06:26;;;;;;;;;10.20;9.00;;;;;23.76;30.48;99741.09;5065899;28;8868;-76
2022/05/07 09:08:57;;;;;;;;;9.20;9.00;;;;;23.80;30.29;99742.72;5049453;28;8862;-76
2022/05/07 09:11:27;;;;;;;;;9.00;9.00;;;;;23.80;30.42;99741.84;5050651;28;8839;-76
2022/05/07 09:14:05;;;;;;;;;8.20;8.00;;;;;23.81;30.26;99736.44;5050829;28;8863;-76
2022/05/07 09:16:39;;;;;;;;;8.60;7.60;;;;;23.81;30.19;99743.56;5050330;28;9065;-76
2022/05/07 09:19:20;;;;;;;;;8.80;8.80;;;;;23.92;30.48;99738.53;5048595;28;8901;-76
2022/05/07 09:21:54;;;;;;;;;10.60;9.80;;;;;24.00;30.43;99735.47;5050148;28;8996;-77
2022/05/07 09:24:23;;;;;;;;;9.20;9.20;;;;;24.05;30.61;99733.44;5038968;28;8854;-75
2022/05/07 09:26:52;;;;;;;;;7.40;7.40;;;;;24.13;29.83;99736.53;5049223;28;8827;-77
2022/05/07 09:29:20;;;;;;;;;7.40;6.00;;;;;24.09;30.05;99722.53;5032499;28;8863;-76
2022/05/07 09:31:50;;;;;;;;;10.60;9.00;;;;;24.19;30.21;99725.53;5048930;28;8850;-77
2022/05/07 09:37:16;;;;;;;;;10.00;7.80;;;;;24.56;29.17;99728.06;5049336;28;8936;-76
2022/05/07 09:39:50;;;;;;;;;9.00;8.80;;;;;24.68;29.46;99711.34;5049330;28;8977;-76
2022/05/07 09:42:21;;;;;;;;;10.80;9.80;;;;;24.77;28.98;99720.66;5048971;28;8889;-78
2022/05/07 09:44:50;;;;;;;;;10.60;10.20;;;;;24.93;28.03;99715.28;5049340;28;8854;-78
2022/05/07 09:47:19;;;;;;;;;9.20;9.20;;;;;25.05;27.29;99720.78;5050513;28;8854;-77
2022/05/07 09:52:36;;;;;;;;;9.40;9.00;;;;;25.23;27.18;99713.53;5049255;28;8847;-78
2022/05/07 09:57:51;;;;;;;;;9.60;8.00;;;;;25.33;26.95;99705.88;5006601;28;9012;-77
2022/05/07 10:00:22;;;;;;;;;9.20;9.20;;;;;25.44;27.02;99715.91;5049827;28;8834;-77
2022/05/07 10:03:07;;;;;;;;;7.40;7.40;;;;;25.39;26.27;99710.84;5047946;28;8885;-76
2022/05/07 10:05:52;;;;;;;;;10.40;10.40;;;;;25.51;26.78;99714.59;5049510;28;8866;-77
2022/05/07 10:08:34;;;;;;;;;8.20;8.20;;;;;25.47;26.47;99710.38;5048007;28;8855;-76
2022/05/07 10:11:04;;;;;;;;;10.60;9.20;;;;;25.16;26.02;99706.84;5049246;28;8854;-77
2022/05/07 10:13:33;;;;;;;;;7.00;7.00;;;;;25.06;25.66;99713.63;5048797;28;9663;-76
2022/05/07 10:16:04;;;;;;;;;9.20;8.40;;;;;24.98;25.55;99713.22;4999182;28;8951;-77
2022/05/07 10:18:35;;;;;;;;;9.40;7.60;;;;;24.93;26.11;99712.63;5047998;28;8850;-76
2022/05/07 10:21:22;;;;;;;;;10.40;9.20;;;;;24.87;25.93;99705.84;5047453;28;8846;-79
2022/05/07 10:23:55;;;;;;;;;9.20;9.20;;;;;24.88;26.37;99702.22;5048656;28;8949;-78
2022/05/07 10:26:24;;;;;;;;;11.00;10.40;;;;;24.96;26.42;99704.47;5048604;28;8862;-77
2022/05/07 10:28:53;;;;;;;;;10.60;10.60;;;;;25.01;26.30;99697.03;5048562;28;8965;-78
2022/05/07 10:31:24;;;;;;;;;11.60;10.00;;;;;24.92;26.49;99695.75;5029420;28;8916;-78
2022/05/07 10:33:53;;;;;;;;;9.00;9.00;;;;;25.01;26.76;99691.69;5047684;28;8850;-76
2022/05/07 10:36:22;;;;;;;;;10.20;9.80;;;;;24.98;26.97;99692.72;5049254;28;8997;-76
2022/05/07 10:38:53;;;;;;;;;8.60;8.60;;;;;25.02;27.03;99688.09;5048471;28;8843;-77
2022/05/07 10:41:25;;;;;;;;;10.40;10.00;;;;;24.95;26.79;99690.22;5013805;28;8838;-77
2022/05/07 10:44:03;;;;;;;;;9.40;9.40;;;;;25.12;26.15;99688.41;5049130;28;8876;-76
2022/05/07 10:46:42;;;;;;;;;10.40;9.40;;;;;25.31;26.48;99683.72;5049204;28;8862;-76
2022/05/07 10:49:12;;;;;;;;;9.40;9.40;;;;;25.49;26.69;99677.28;5013521;28;8992;-76
2022/05/07 10:51:50;;;;;;;;;7.40;7.40;;;;;25.50;26.59;99688.84;5047889;28;8997;-78
2022/05/07 10:54:24;;;;;;;;;10.00;8.80;;;;;25.62;26.48;99682.75;5047828;28;8988;-77
2022/05/07 10:56:54;;;;;;;;;9.80;9.80;;;;;25.57;26.98;99684.84;5048302;28;8867;-78
2022/05/07 10:59:24;;;;;;;;;9.60;9.60;;;;;25.56;26.75;99688.47;5029211;28;8850;-76
2022/05/07 11:02:04;;;;;;;;;12.20;10.40;;;;;25.61;26.29;99670.34;5047832;28;8850;-77
2022/05/07 11:04:43;;;;;;;;;8.20;7.40;;;;;25.56;26.73;99674.25;5047585;28;8923;-77
2022/05/07 11:07:19;;;;;;;;;9.20;9.20;;;;;25.70;27.06;99668.94;5013631;28;8855;-76
2022/05/07 11:09:51;;;;;;;;;11.40;10.80;;;;;25.76;26.63;99670.38;5047608;28;8988;-77
2022/05/07 11:12:21;;;;;;;;;11.80;9.40;;;;;25.74;25.49;99667.78;5048833;28;8862;-76
2022/05/07 11:14:51;;;;;;;;;10.00;10.00;;;;;25.80;26.10;99666.53;5047837;28;9651;-78
2022/05/07 11:17:29;;;;;;;;;12.00;11.20;;;;;25.75;26.36;99669.50;5014395;28;8968;-76
2022/05/07 11:19:58;;;;;;;;;9.60;8.20;;;;;25.67;26.12;99669.97;5030159;28;8862;-78
2022/05/07 11:22:30;;;;;;;;;9.00;9.00;;;;;25.75;25.75;99658.81;5048413;28;8863;-76
2022/05/07 11:25:03;;;;;;;;;8.00;8.00;;;;;25.85;26.11;99657.28;4982310;28;8996;-78
2022/05/07 11:27:32;;;;;;;;;8.40;7.40;;;;;25.76;25.79;99667.69;5047410;28;8863;-77
2022/05/07 11:30:01;;;;;;;;;9.80;8.80;;;;;25.66;25.44;99660.25;5048736;28;8877;-77
2022/05/07 11:32:39;;;;;;;;;9.60;8.00;;;;;25.44;25.05;99659.81;5030965;28;8839;-76
2022/05/07 11:35:09;;;;;;;;;9.40;9.40;;;;;25.55;25.09;99660.03;5048549;28;8846;-78
2022/05/07 11:37:39;;;;;;;;;7.00;6.00;;;;;25.73;25.02;99651.84;4996933;28;8846;-77
2022/05/07 11:40:11;;;;;;;;;10.00;9.40;;;;;25.85;23.97;99646.59;5047813;28;8876;-77
2022/05/07 11:42:43;;;;;;;;;8.60;7.60;;;;;26.08;24.35;99652.34;5047864;28;8847;-76
2022/05/07 11:45:26;;;;;;;;;10.00;10.00;;;;;26.08;24.57;99649.69;5047707;28;8981;-76
2022/05/07 11:47:56;;;;;;;;;11.40;10.20;;;;;26.19;24.29;99651.69;5047594;28;8830;-76
2022/05/07 11:50:28;;;;;;;;;7.80;6.80;;;;;26.37;24.24;99650.50;5047624;28;8866;-77
2022/05/07 11:53:09;;;;;;;;;7.00;6.20;;;;;26.53;23.91;99644.16;5047577;28;9628;-77
2022/05/07 11:55:39;;;;;;;;;6.40;5.40;;;;;26.59;24.08;99641.97;5046183;28;8843;-77
2022/05/07 11:58:16;;;;;;;;;8.20;8.20;;;;;26.55;23.38;99645.75;5047631;28;8881;-77
2022/05/07 12:00:47;;;;;;;;;9.00;8.40;;;;;26.19;23.57;99644.50;5046330;28;8870;-76
2022/05/07 12:03:20;;;;;;;;;8.20;8.20;;;;;26.11;23.67;99645.97;5047390;28;8839;-77
2022/05/07 12:05:49;;;;;;;;;9.00;9.00;;;;;25.98;23.80;99643.22;5048244;28;8862;-77
2022/05/07 12:08:20;;;;;;;;;9.20;7.80;;;;;25.96;23.90;99635.28;5047914;28;8858;-76
2022/05/07 12:10:53;;;;;;;;;9.20;8.60;;;;;25.90;23.43;99643.66;5048346;28;9615;-77
2022/05/07 12:13:23;;;;;;;;;7.80;7.40;;;;;25.87;23.11;99638.50;5047265;28;8838;-77
2022/05/07 12:18:46;;;;;;;;;9.80;9.00;;;;;25.91;23.78;99637.34;5052194;28;8830;-77